• Join FlightAware (Why Join?)
  • Login
  • US Flag 
05:26AM EST


 

Airport Tracker/Info


-or-


 

Live Flight TrackerFlight Track Log ✈ QLK344D ✈ 03-May-2012 ✈ YBBN / BNE - YGLA / GLT

Flight Track Log - Related Links

Times and Time Zones

All times are in EDT time to prevent confusion due to time zone crossing. See the QLK344D flight status page for this flight to view local times or setup timezone preferences in your user account.

Time Position Orientation Groundspeed Altitude Reporting Facility
EDT Latitude Longitude Course Direction KTS MPH feet Rate Location/Type
03:52AM -27.3719 153.1358 North 151 174 700  Level Aus ATC (RADAR)
03:53AM -27.3089 153.1386 357° North 200 230 3,400 1,881 Climbing Aus ATC (RADAR)
03:55AM -27.1802 153.1309 356° North 264 304 6,500 1,804 Climbing Aus ATC (RADAR)
03:56AM -27.1367 153.1278 356° North 268 308 7,700 1,950 Climbing Aus ATC (RADAR)
03:56AM -27.0798 153.1238 356° North 274 315 9,100 1,895 Climbing Aus ATC (RADAR)
03:57AM -27.0141 153.1191 357° North 282 325 10,700 1,979 Climbing Aus ATC (RADAR)
03:58AM -26.9566 153.1153 357° North 271 312 12,300 1,835 Climbing Aus ATC (RADAR)
03:59AM -26.9074 153.1122 356° North 266 306 13,300 1,326 Climbing Aus ATC (RADAR)
04:00AM -26.8380 153.1073 356° North 272 313 14,400 1,263 Climbing Aus ATC (RADAR)
04:00AM -26.7867 153.1031 357° North 276 318 15,300 1,444 Climbing Aus ATC (RADAR)
04:01AM -26.6990 153.0980 356° North 262 302 17,000 1,296 Climbing Aus ATC (RADAR)
04:02AM -26.6318 153.0933 347° North 262 302 18,000 1,029 Climbing Aus ATC (RADAR)
04:03AM -26.5734 153.0783 325° Northwest 258 297 18,800 1,059 Climbing Aus ATC (RADAR)
04:04AM -26.5379 153.0502 326° Northwest 262 302 19,500 867 Climbing Aus ATC (RADAR)
04:05AM -26.4819 153.0079 328° Northwest 266 306 20,100 290 Climbing Aus ATC (RADAR)
04:06AM -26.4025 152.9522 328° Northwest 295 339 20,100  Level Aus ATC (RADAR)
04:06AM -26.3669 152.9274 328° Northwest 302 348 20,100 1,326 Level Aus ATC (RADAR)
04:07AM -26.3051 152.8848 327° Northwest 262 302 22,000 1,143 Climbing Aus ATC (RADAR)
04:08AM -26.2533 152.8472 328° Northwest 269 310 22,100 67 Climbing Aus ATC (RADAR)
04:09AM -26.2085 152.8162 328° Northwest 286 329 22,100  Level Aus ATC (RADAR)
04:10AM -26.1446 152.7710 328° Northwest 297 342 22,100  Level Aus ATC (RADAR)
04:11AM -26.0425 152.6993 327° Northwest 307 353 22,100  Level Aus ATC (RADAR)
04:12AM -25.9823 152.6557 327° Northwest 307 353 22,100  Level Aus ATC (RADAR)
04:13AM -25.9274 152.6167 327° Northwest 307 353 22,100  Level Aus ATC (RADAR)
04:14AM -25.8669 152.5735 328° Northwest 308 354 22,100  Level Aus ATC (RADAR)
04:14AM -25.8181 152.5393 327° Northwest 310 357 22,100  Level Aus ATC (RADAR)
04:15AM -25.7632 152.5003 328° Northwest 309 356 22,100  Level Aus ATC (RADAR)
04:17AM -25.6163 152.3989 328° Northwest 307 353 22,100  Level Aus ATC (RADAR)
04:18AM -25.5125 152.3273 328° Northwest 308 354 22,100  Level Aus ATC (RADAR)
04:19AM -25.4638 152.2934 333° Northwest 310 357 22,100  Level Aus ATC (RADAR)
04:20AM -25.3872 152.2499 335° Northwest 311 358 22,100  Level Aus ATC (RADAR)
04:21AM -25.2901 152.1989 334° Northwest 309 356 22,100  Level Aus ATC (RADAR)
04:22AM -25.2387 152.1717 334° Northwest 306 352 22,100  Level Aus ATC (RADAR)
04:23AM -25.1748 152.1375 334° Northwest 306 352 22,100  Level Aus ATC (RADAR)
04:24AM -25.1044 152.0991 334° Northwest 305 351 22,100  Level Aus ATC (RADAR)
04:24AM -25.0659 152.0784 334° Northwest 307 353 22,100  Level Aus ATC (RADAR)
04:25AM -24.9818 152.0334 334° Northwest 309 356 22,100  Level Aus ATC (RADAR)
04:27AM -24.8724 151.9744 334° Northwest 311 358 22,100 -42 Level Aus ATC (RADAR)
04:28AM -24.7948 151.9329 334° Northwest 310 357 22,000 -863 Descending Aus ATC (RADAR)
04:29AM -24.6937 151.8789 333° Northwest 303 349 20,100 -1,538 Descending Aus ATC (RADAR)
04:30AM -24.5919 151.8211 333° Northwest 310 357 17,900 -1,636 Descending Aus ATC (RADAR)
04:31AM -24.5516 151.7990 335° Northwest 322 371 17,100 -1,670 Descending Aus ATC (RADAR)
04:32AM -24.4364 151.7396 334° Northwest 319 367 14,700 -1,644 Descending Aus ATC (RADAR)
04:33AM -24.3723 151.7059 334° Northwest 305 351 13,400 -1,543 Descending Aus ATC (RADAR)
04:34AM -24.3043 151.6695 335° Northwest 297 342 12,000 -1,533 Descending Aus ATC (RADAR)
04:35AM -24.2617 151.6479 334° Northwest 288 331 11,100 -1,400 Descending Aus ATC (RADAR)
04:35AM -24.1995 151.6149 334° Northwest 268 308 9,900 -1,412 Descending Aus ATC (RADAR)
04:36AM -24.1667 151.5974 335° Northwest 262 302 9,100 -1,326 Descending Aus ATC (RADAR)
04:37AM -24.0984 151.5621 335° Northwest 249 287 7,800 -1,261 Descending Aus ATC (RADAR)
04:38AM -24.0444 151.5347 333° Northwest 229 264 6,600 -1,158 Descending Aus ATC (RADAR)
04:39AM -23.9911 151.5054 333° Northwest 212 244 5,600 -1,055 Descending Aus ATC (RADAR)
04:39AM -23.9656 151.4913 298° West 206 237 5,000 -1,133 Descending Aus ATC (RADAR)
04:40AM -23.9384 151.4354 287° West 212 244 3,900 -1,074 Descending Aus ATC (RADAR)
04:41AM -23.9296 151.4039 289° West 183 211 3,300 -927 Descending Aus ATC (RADAR)
04:42AM -23.9099 151.3413 291° West 174 200 2,200 -896 Descending Aus ATC (RADAR)
04:43AM -23.8950 151.2980 290° West 147 169 1,300 -792 Descending Aus ATC (RADAR)
04:44AM -23.8847 151.2677 290° West 142 163 800 -741 Descending Aus ATC (RADAR)
04:45AM -23.8770 151.2441 290° West 139 160 300 -857 Descending Aus ATC (RADAR)